Time;durP1;ratioP1;P1;durP2;ratioP2;P2;SDS_P1;SDS_P2;PMS_P1;PMS_P2;Temp;Humidity;BMP_temperature;BMP_pressure;BME280_temperature;BME280_humidity;BME280_pressure;Samples;Min_cycle;Max_cycle;Signal;HPM_P1;HPM_P2
2021/04/03 00:00:45;;;;;;;3.50;3.30;;;;;;;2.93;93.33;99776.45;1706145;82;21372;-44
2021/04/03 00:03:14;;;;;;;3.12;2.92;;;;;;;2.93;93.37;99773.90;1706132;84;21039;-43
2021/04/03 00:05:41;;;;;;;3.55;3.35;;;;;;;2.93;93.37;99773.90;1706291;84;20956;-43
2021/04/03 00:08:10;;;;;;;3.70;3.50;;;;;;;2.93;93.41;99773.90;1706157;84;21076;-44
2021/04/03 00:10:44;;;;;;;3.02;2.90;;;;;;;2.90;93.45;99773.86;1706144;84;21078;-48
2021/04/03 00:13:17;;;;;;;3.75;3.55;;;;;;;2.90;93.43;99780.25;1706154;83;22136;-46
2021/04/03 00:15:46;;;;;;;3.65;3.47;;;;;;;2.85;93.37;99787.49;1706138;83;20960;-45
2021/04/03 00:18:15;;;;;;;3.65;3.45;;;;;;;2.84;93.37;99788.34;1706109;84;21007;-45
2021/04/03 00:20:45;;;;;;;3.25;3.10;;;;;;;2.82;93.38;99792.60;1706201;84;21599;-43
2021/04/03 00:23:18;;;;;;;3.60;3.40;;;;;;;2.81;93.41;99789.62;1706249;84;21595;-42
2021/04/03 00:25:46;;;;;;;3.80;3.60;;;;;;;2.81;93.40;99795.17;1706166;83;22323;-44
2021/04/03 00:28:14;;;;;;;3.62;3.42;;;;;;;2.80;93.36;99789.19;1706111;84;20999;-42
2021/04/03 00:30:42;;;;;;;3.40;3.30;;;;;;;2.79;93.35;99793.04;1706164;83;21011;-44
2021/04/03 00:33:10;;;;;;;3.95;3.75;;;;;;;2.78;93.31;99793.45;1706122;84;21064;-42
2021/04/03 00:35:41;;;;;;;4.08;3.87;;;;;;;2.77;93.28;99795.58;1706231;83;20964;-43
2021/04/03 00:38:10;;;;;;;4.22;4.03;;;;;;;2.76;93.28;99795.55;1707641;82;21063;-45
2021/04/03 00:40:41;;;;;;;4.50;4.20;;;;;;;2.74;93.19;99800.69;1719555;82;20954;-44
2021/04/03 00:43:13;;;;;;;5.05;4.75;;;;;;;2.73;93.14;99803.64;1719646;83;21046;-43
2021/04/03 00:45:42;;;;;;;4.35;4.05;;;;;;;2.72;93.08;99798.55;1719430;83;21102;-42
2021/04/03 00:48:10;;;;;;;4.33;4.03;;;;;;;2.69;93.03;99801.94;1719797;83;21658;-44
2021/04/03 00:50:42;;;;;;;4.37;4.08;;;;;;;2.71;93.05;99796.84;1719829;83;22228;-43
2021/04/03 00:53:12;;;;;;;4.72;4.42;;;;;;;2.71;93.05;99791.73;1719691;83;21073;-44
2021/04/03 00:55:42;;;;;;;4.40;4.20;;;;;;;2.70;93.01;99793.86;1719625;83;21058;-44
2021/04/03 00:58:10;;;;;;;4.45;4.15;;;;;;;2.68;92.85;99796.84;1719584;82;20955;-44
2021/04/03 01:00:39;;;;;;;3.90;3.70;;;;;;;2.66;92.78;99792.14;1719603;82;20995;-43
2021/04/03 01:03:07;;;;;;;4.70;4.42;;;;;;;2.66;92.79;99797.26;1719734;83;22133;-43
2021/04/03 01:05:36;;;;;;;4.55;4.25;;;;;;;2.65;92.64;99791.69;1719694;83;20970;-44
2021/04/03 01:08:05;;;;;;;3.85;3.65;;;;;;;2.65;92.67;99792.55;1719655;83;21120;-43
2021/04/03 01:10:40;;;;;;;4.17;3.90;;;;;;;2.66;92.66;99794.70;1719608;83;21031;-44
2021/04/03 01:13:30;;;;;;;3.65;3.45;;;;;;;2.66;92.49;99790.42;1693095;83;21070;-44
2021/04/03 01:16:28;;;;;;;3.55;3.42;;;;;;;2.66;92.47;99796.81;1693970;83;21451;-43
2021/04/03 01:19:48;;;;;;;4.25;3.98;;;;;;;2.65;92.31;99800.63;1719592;83;21148;-42
2021/04/03 01:22:52;;;;;;;4.15;3.95;;;;;;;2.63;92.24;99794.66;1719703;83;20947;-43
2021/04/03 01:25:29;;;;;;;4.62;4.33;;;;;;;2.62;92.06;99804.05;1719189;83;20974;-42
2021/04/03 01:28:41;;;;;;;4.62;4.33;;;;;;;2.63;92.09;99798.50;1695922;83;20999;-43
2021/04/03 01:31:11;;;;;;;4.53;4.33;;;;;;;2.63;91.84;99802.33;1719629;83;21368;-43
2021/04/03 01:33:44;;;;;;;5.08;4.78;;;;;;;2.63;91.82;99801.92;1719575;83;21069;-42
2021/04/03 01:36:20;;;;;;;4.08;3.87;;;;;;;2.63;91.78;99806.16;1719617;82;21050;-47
2021/04/03 01:39:06;;;;;;;4.80;4.50;;;;;;;2.65;91.81;99808.30;1691680;83;20979;-45
2021/04/03 01:41:35;;;;;;;5.35;4.95;;;;;;;2.65;91.67;99809.58;1715874;83;21030;-44
2021/04/03 01:44:04;;;;;;;5.08;4.67;;;;;;;2.65;91.54;99817.24;1716027;83;21220;-43
2021/04/03 01:46:35;;;;;;;5.65;5.15;;;;;;;2.65;91.60;99818.52;1715653;82;21074;-46
2021/04/03 01:49:11;;;;;;;5.87;5.47;;;;;;;2.64;91.50;99815.53;1716008;83;21580;-42
2021/04/03 01:54:11;;;;;;;5.78;5.37;;;;;;;2.67;91.49;99821.53;1815885;78;21871;-44
2021/04/03 01:56:46;;;;;;;5.97;5.47;;;;;;;2.62;91.47;99818.52;1750159;80;20915;-43
2021/04/03 01:59:14;;;;;;;6.37;5.87;;;;;;;2.65;91.35;99807.89;1779553;80;21277;-44
2021/04/03 02:01:48;;;;;;;6.10;5.70;;;;;;;2.62;91.27;99818.10;1757611;81;21042;-43
2021/04/03 02:04:18;;;;;;;6.33;5.85;;;;;;;2.62;91.08;99820.66;1757843;81;21013;-44
2021/04/03 02:06:47;;;;;;;6.97;6.37;;;;;;;2.61;91.16;99816.80;1757701;81;20947;-44
2021/04/03 02:09:16;;;;;;;6.00;5.60;;;;;;;2.61;90.85;99820.23;1756075;81;20955;-44
2021/04/03 02:11:52;;;;;;;5.40;5.00;;;;;;;2.61;90.71;99827.03;1757784;81;21284;-42
2021/04/03 02:14:21;;;;;;;6.03;5.62;;;;;;;2.59;90.54;99827.05;1748740;81;20904;-44
2021/04/03 02:16:50;;;;;;;5.65;5.25;;;;;;;2.58;90.55;99840.22;1757758;81;20931;-44
2021/04/03 02:19:18;;;;;;;5.70;5.30;;;;;;;2.56;90.43;99840.64;1705056;81;20950;-42
2021/04/03 02:21:46;;;;;;;5.67;5.25;;;;;;;2.55;90.50;99841.50;1728541;81;21017;-41
2021/04/03 02:24:15;;;;;;;5.65;5.10;;;;;;;2.54;90.30;99845.34;1757668;81;21397;-43
2021/04/03 02:26:45;;;;;;;5.97;5.47;;;;;;;2.52;90.11;99840.20;1757625;81;20962;-43
2021/04/03 02:29:13;;;;;;;5.25;4.85;;;;;;;2.51;90.22;99847.44;1757804;81;21602;-43
2021/04/03 02:31:43;;;;;;;5.47;5.08;;;;;;;2.50;89.98;99849.98;1757641;81;21018;-42
2021/04/03 02:34:12;;;;;;;5.53;5.12;;;;;;;2.47;89.83;99842.30;1757684;81;21050;-43
2021/04/03 02:36:41;;;;;;;5.80;5.37;;;;;;;2.43;89.72;99845.28;1757672;81;21457;-42
2021/04/03 02:39:10;;;;;;;4.37;4.10;;;;;;;2.42;89.49;99849.52;1757633;81;21042;-43
2021/04/03 02:41:58;;;;;;;4.67;4.30;;;;;;;2.43;89.63;99850.39;1757669;81;20998;-44
2021/04/03 02:44:44;;;;;;;4.60;4.27;;;;;;;2.41;89.41;99852.09;1757238;81;21204;-44
2021/04/03 02:47:17;;;;;;;10.48;4.22;;;;;;;2.37;89.14;99862.70;1727938;81;21026;-43
2021/04/03 02:49:57;;;;;;;5.40;4.47;;;;;;;2.37;89.18;99875.88;1728090;81;21379;-43
2021/04/03 02:52:26;;;;;;;4.42;4.03;;;;;;;2.34;88.98;99872.03;1755258;81;21114;-43
2021/04/03 02:54:55;;;;;;;4.17;3.87;;;;;;;2.33;89.19;99878.86;1744559;82;21007;-43
2021/04/03 02:57:23;;;;;;;3.95;3.65;;;;;;;2.35;88.96;99878.85;1744566;82;21078;-42
2021/04/03 02:59:54;;;;;;;6.53;4.60;;;;;;;2.33;89.05;99876.71;1744575;80;21106;-44
2021/04/03 03:02:23;;;;;;;5.00;4.47;;;;;;;2.33;88.91;99884.38;1744692;82;22335;-44
2021/04/03 03:04:53;;;;;;;8.80;3.90;;;;;;;2.31;88.93;99885.66;1744082;82;21042;-43
2021/04/03 03:07:23;;;;;;;4.60;4.20;;;;;;;2.30;88.86;99882.67;1744063;82;21003;-42
2021/04/03 03:09:51;;;;;;;4.50;4.20;;;;;;;2.29;88.95;99884.36;1716236;82;21030;-43
2021/04/03 03:12:22;;;;;;;5.65;5.10;;;;;;;2.29;88.95;99878.41;1744067;82;20948;-44
2021/04/03 03:14:51;;;;;;;4.40;3.92;;;;;;;2.28;88.95;99877.55;1744036;82;22134;-42
2021/04/03 03:17:20;;;;;;;4.47;4.15;;;;;;;2.28;88.93;99876.27;1743947;82;20935;-44
2021/04/03 03:19:50;;;;;;;4.40;4.10;;;;;;;2.27;88.87;99887.33;1743925;82;21035;-43
2021/04/03 03:22:19;;;;;;;4.67;4.37;;;;;;;2.27;88.89;99883.50;1722424;82;21047;-42
2021/04/03 03:24:46;;;;;;;4.67;4.25;;;;;;;2.25;88.89;99883.91;1716363;82;20939;-42
2021/04/03 03:27:15;;;;;;;4.25;4.00;;;;;;;2.26;88.89;99890.73;1744031;82;21388;-44
2021/04/03 03:29:43;;;;;;;4.95;4.33;;;;;;;2.24;88.69;99889.87;1743957;82;21058;-43
2021/04/03 03:32:11;;;;;;;4.60;4.20;;;;;;;2.24;88.70;99884.77;1744039;82;20959;-42
2021/04/03 03:34:40;;;;;;;5.28;4.78;;;;;;;2.20;88.86;99891.97;1743600;82;21019;-43
2021/04/03 03:37:10;;;;;;;5.08;4.67;;;;;;;2.19;88.65;99891.55;1744074;82;20991;-44
2021/04/03 03:39:41;;;;;;;5.08;4.58;;;;;;;2.15;88.87;99884.70;1743412;82;21317;-43
2021/04/03 03:42:10;;;;;;;5.33;4.83;;;;;;;2.14;88.95;99899.57;1743965;82;21082;-43
2021/04/03 03:44:38;;;;;;;5.42;4.90;;;;;;;2.12;88.76;99896.15;1744038;82;21695;-43
2021/04/03 03:47:08;;;;;;;6.60;5.78;;;;;;;2.10;88.63;99897.84;1744057;82;20916;-43
2021/04/03 03:49:39;;;;;;;6.60;5.70;;;;;;;2.10;88.43;99908.92;1744139;82;21556;-44
2021/04/03 03:52:07;;;;;;;7.08;5.78;;;;;;;2.07;88.50;99910.59;1743923;82;21242;-43
2021/04/03 03:54:36;;;;;;;7.60;6.08;;;;;;;2.06;88.39;99922.92;1751531;81;21563;-43
2021/04/03 03:57:06;;;;;;;6.92;5.87;;;;;;;2.04;88.11;99922.06;1752296;81;21579;-42
2021/04/03 03:59:34;;;;;;;8.28;5.47;;;;;;;2.01;88.29;99929.27;1752200;80;21046;-44
2021/04/03 04:02:04;;;;;;;6.40;5.83;;;;;;;1.99;88.00;99935.65;1752241;81;21006;-42
2021/04/03 04:04:32;;;;;;;7.53;6.08;;;;;;;1.96;87.98;99942.01;1752345;81;22278;-44
2021/04/03 04:07:02;;;;;;;7.03;6.10;;;;;;;1.94;88.05;99937.31;1751817;81;21066;-43
2021/04/03 04:09:30;;;;;;;8.48;6.62;;;;;;;1.92;88.03;99933.02;1752255;81;21011;-45
2021/04/03 04:12:08;;;;;;;6.37;5.70;;;;;;;1.91;88.16;99937.29;1752335;81;21101;-43
2021/04/03 04:14:38;;;;;;;6.65;5.97;;;;;;;1.88;87.90;99933.41;1751088;81;20954;-43
2021/04/03 04:17:07;;;;;;;6.87;6.17;;;;;;;1.84;87.70;99939.33;1752202;81;21379;-43
2021/04/03 04:19:37;;;;;;;6.78;6.17;;;;;;;1.82;87.64;99944.84;1752232;81;21034;-43
2021/04/03 04:22:05;;;;;;;7.53;6.55;;;;;;;1.78;87.68;99938.01;1752192;81;21057;-42
2021/04/03 04:24:33;;;;;;;7.42;6.78;;;;;;;1.77;87.42;99940.13;1752177;81;20958;-44
2021/04/03 04:27:03;;;;;;;7.30;6.60;;;;;;;1.71;87.12;99937.95;1752285;81;21018;-43
2021/04/03 04:29:31;;;;;;;7.80;7.10;;;;;;;1.68;87.22;99935.38;1752195;81;21389;-43
2021/04/03 04:32:05;;;;;;;7.50;6.70;;;;;;;1.64;87.02;99934.92;1752082;81;20946;-42
2021/04/03 04:34:35;;;;;;;7.25;6.47;;;;;;;1.61;86.85;99939.96;1752001;81;21113;-43
2021/04/03 04:37:04;;;;;;;7.47;6.67;;;;;;;1.57;86.88;99947.16;1752178;81;21030;-43
2021/04/03 04:39:39;;;;;;;8.43;7.20;;;;;;;1.52;86.82;99948.41;1752250;81;21026;-44
2021/04/03 04:42:10;;;;;;;7.37;6.67;;;;;;;1.53;86.73;99947.97;1751625;81;21446;-44
2021/04/03 04:44:39;;;;;;;8.60;7.10;;;;;;;1.57;86.84;99945.88;1751816;81;21010;-43
2021/04/03 04:47:06;;;;;;;6.50;5.87;;;;;;;1.68;86.85;99951.09;1752179;81;21003;-42
2021/04/03 04:49:35;;;;;;;8.00;7.20;;;;;;;1.79;86.84;99953.75;1752217;81;21030;-42
2021/04/03 04:52:04;;;;;;;7.22;6.20;;;;;;;1.90;86.55;99958.55;1752216;81;21042;-43
2021/04/03 04:54:33;;;;;;;7.33;6.62;;;;;;;1.99;85.87;99963.73;1704286;82;22283;-42
2021/04/03 04:57:04;;;;;;;7.08;6.40;;;;;;;2.09;85.19;99957.42;1737112;82;21058;-42
2021/04/03 04:59:33;;;;;;;7.78;7.00;;;;;;;2.17;85.27;99965.15;1735858;81;21022;-43
2021/04/03 05:02:04;;;;;;;7.42;6.50;;;;;;;2.28;83.40;99959.72;1736003;82;21014;-42
2021/04/03 05:04:31;;;;;;;8.03;7.10;;;;;;;2.30;83.25;99958.88;1737125;82;21022;-42
2021/04/03 05:06:59;;;;;;;7.40;6.67;;;;;;;2.37;83.01;99968.72;1737176;82;21316;-43
2021/04/03 05:09:27;;;;;;;7.45;6.35;;;;;;;2.41;82.34;99978.11;1737025;82;21058;-43
2021/04/03 05:11:54;;;;;;;8.18;7.25;;;;;;;2.47;82.10;99969.64;1737067;82;21081;-43
2021/04/03 05:14:22;;;;;;;8.48;7.20;;;;;;;2.55;81.83;99974.38;1737027;82;21149;-43
2021/04/03 05:16:49;;;;;;;9.55;7.42;;;;;;;2.63;81.37;99987.62;1737108;82;21019;-43
2021/04/03 05:19:17;;;;;;;8.35;6.90;;;;;;;2.69;81.40;99980.85;1737114;82;21395;-43
2021/04/03 05:21:47;;;;;;;8.35;7.35;;;;;;;2.78;80.61;99980.47;1737029;82;21015;-42
2021/04/03 05:24:15;;;;;;;8.00;7.20;;;;;;;2.81;80.55;99981.80;1737026;82;20992;-43
2021/04/03 05:26:42;;;;;;;7.50;6.75;;;;;;;2.85;80.34;99993.74;1737100;82;21635;-43
2021/04/03 05:29:10;;;;;;;7.75;6.95;;;;;;;2.90;79.97;99985.67;1737093;82;21023;-42
2021/04/03 05:31:38;;;;;;;8.13;7.33;;;;;;;2.97;80.20;99994.23;1737080;82;21441;-43
2021/04/03 05:34:05;;;;;;;6.97;6.30;;;;;;;3.04;79.91;99988.30;1736998;82;20964;-43
2021/04/03 05:36:33;;;;;;;9.18;7.37;;;;;;;3.07;79.64;99989.59;1737100;82;21055;-43
2021/04/03 05:39:02;;;;;;;10.15;7.53;;;;;;;3.16;79.67;99992.62;1737061;82;21073;-43
2021/04/03 05:41:30;;;;;;;8.03;7.22;;;;;;;3.21;79.03;99995.20;1737077;82;20959;-43
2021/04/03 05:43:58;;;;;;;8.13;7.30;;;;;;;3.26;78.95;99996.08;1737051;82;21361;-43
2021/04/03 05:46:25;;;;;;;7.67;6.97;;;;;;;3.34;78.40;99990.55;1737057;82;21050;-44
2021/04/03 05:48:53;;;;;;;7.72;6.92;;;;;;;3.42;78.03;100006.81;1737050;82;21031;-43
2021/04/03 05:51:21;;;;;;;7.45;6.78;;;;;;;3.48;77.71;99994.88;1737139;82;21027;-43
2021/04/03 05:53:49;;;;;;;9.48;7.55;;;;;;;3.53;77.53;99991.91;1739119;82;20948;-43
2021/04/03 05:56:17;;;;;;;6.97;6.22;;;;;;;3.61;77.92;99987.66;1743905;82;22409;-43
2021/04/03 05:58:46;;;;;;;7.62;6.58;;;;;;;3.74;77.07;99990.69;1743937;80;20991;-43
2021/04/03 06:01:14;;;;;;;7.17;6.22;;;;;;;3.86;76.86;99988.98;1743900;82;21034;-43
2021/04/03 06:03:41;;;;;;;7.92;7.12;;;;;;;3.95;76.79;99990.72;1743836;82;20955;-42
2021/04/03 06:06:09;;;;;;;5.83;5.30;;;;;;;3.99;75.81;99996.27;1743960;82;21058;-43
2021/04/03 06:08:37;;;;;;;6.35;5.65;;;;;;;4.06;75.30;99998.41;1743938;82;21211;-43
2021/04/03 06:11:18;;;;;;;7.15;6.20;;;;;;;4.08;75.13;99995.42;1743872;82;21046;-42
2021/04/03 06:14:04;;;;;;;6.40;5.80;;;;;;;4.15;74.16;99986.88;1743889;82;21118;-43
2021/04/03 06:16:36;;;;;;;5.80;5.30;;;;;;;4.22;74.75;99984.77;1743866;82;21042;-43
2021/04/03 06:19:22;;;;;;;4.30;3.90;;;;;;;4.37;73.49;99984.33;1744013;82;21366;-43
2021/04/03 06:22:04;;;;;;;4.90;4.47;;;;;;;4.45;71.68;99983.47;1743952;82;21210;-44
2021/04/03 06:24:34;;;;;;;4.12;3.80;;;;;;;4.52;70.63;99990.73;1743881;82;21559;-42
2021/04/03 06:27:08;;;;;;;4.03;3.70;;;;;;;4.56;70.69;99987.31;1743927;82;21671;-42
2021/04/03 06:29:43;;;;;;;4.05;3.65;;;;;;;4.58;69.66;99984.31;1743911;82;21031;-43
2021/04/03 06:32:21;;;;;;;3.90;3.55;;;;;;;4.62;69.18;99991.99;1743834;82;21209;-43
2021/04/03 06:34:53;;;;;;;3.90;3.52;;;;;;;4.69;69.84;99991.16;1723339;82;22119;-43
2021/04/03 06:37:29;;;;;;;3.20;3.00;;;;;;;4.84;69.01;99992.38;1743845;82;21093;-45
2021/04/03 06:40:00;;;;;;;3.27;3.08;;;;;;;4.96;68.18;100008.62;1744156;82;21111;-44
2021/04/03 06:42:52;;;;;;;3.70;3.40;;;;;;;5.20;67.42;100003.00;1744004;82;20963;-43
2021/04/03 06:45:25;;;;;;;6.33;3.60;;;;;;;5.20;67.42;100003.00;1737717;82;21220;-44
2021/04/03 06:48:09;;;;;;;3.52;3.30;;;;;;;5.30;66.05;100004.24;1744090;82;21366;-43
2021/04/03 06:50:46;;;;;;;3.65;3.37;;;;;;;5.34;66.28;100008.91;1744151;82;20983;-43
2021/04/03 06:53:18;;;;;;;3.42;3.02;;;;;;;5.44;65.52;100012.30;1744106;82;21038;-43
2021/04/03 06:55:47;;;;;;;3.52;3.33;;;;;;;5.46;64.99;100010.58;1744031;82;21599;-44
2021/04/03 06:58:15;;;;;;;4.33;4.00;;;;;;;5.63;65.14;100026.34;1744086;82;21035;-43
2021/04/03 07:44:58;;;;;;;7.10;3.60;;;;;;;7.11;56.67;100051.82;1851612;77;21648;-41
2021/04/03 07:47:26;;;;;;;3.83;3.35;;;;;;;7.22;56.05;100062.01;1820008;78;20914;-42
2021/04/03 07:49:54;;;;;;;3.30;2.80;;;;;;;7.36;55.59;100071.70;1822968;78;21187;-42
2021/04/03 07:52:52;;;;;;;6.72;3.22;;;;;;;7.48;53.76;100072.86;1822791;78;20986;-42
2021/04/03 07:55:36;;;;;;;3.40;3.20;;;;;;;7.56;54.51;100062.89;1805376;78;21373;-41
2021/04/03 07:58:29;;;;;;;3.08;2.75;;;;;;;7.79;53.91;100066.91;1823015;78;21534;-42
2021/04/03 08:01:01;;;;;;;3.35;3.05;;;;;;;7.93;54.81;100075.29;1818681;78;21057;-42
2021/04/03 08:03:31;;;;;;;3.12;2.90;;;;;;;8.26;52.57;100068.39;1822915;78;21502;-41
2021/04/03 08:06:06;;;;;;;2.80;2.60;;;;;;;8.32;52.50;100073.45;1822979;78;21547;-42
2021/04/03 08:08:39;;;;;;;3.25;3.05;;;;;;;8.44;52.01;100062.09;1821401;78;21447;-43
2021/04/03 08:11:15;;;;;;;3.22;2.87;;;;;;;8.61;52.45;100077.36;1822920;78;21033;-42
2021/04/03 08:13:46;;;;;;;3.00;2.80;;;;;;;8.74;51.59;100090.91;1822312;78;20986;-42
2021/04/03 08:16:15;;;;;;;3.40;3.08;;;;;;;8.63;51.37;100087.22;1822861;78;21289;-43
2021/04/03 08:18:49;;;;;;;3.22;3.02;;;;;;;8.33;51.16;100086.76;1822783;78;21017;-43
2021/04/03 08:21:28;;;;;;;3.47;3.17;;;;;;;8.17;51.77;100090.00;1889878;76;22629;-44
2021/04/03 08:23:56;;;;;;;5.28;2.83;;;;;;;8.19;53.02;100090.83;1860845;77;21660;-42
2021/04/03 08:26:28;;;;;;;3.00;2.80;;;;;;;8.44;51.30;100091.75;1860710;77;21370;-46
2021/04/03 08:28:56;;;;;;;2.70;2.25;;;;;;;8.42;49.81;100093.51;1860824;77;20993;-43
2021/04/03 08:31:29;;;;;;;3.12;2.83;;;;;;;8.29;50.78;100093.70;1860688;77;20962;-43
2021/04/03 08:34:04;;;;;;;3.35;3.15;;;;;;;8.44;51.89;100093.05;1838347;77;21010;-42
2021/04/03 08:36:36;;;;;;;3.05;2.85;;;;;;;8.48;51.22;100105.05;1827103;78;20986;-43
2021/04/03 08:39:06;;;;;;;3.25;2.80;;;;;;;8.14;51.68;100105.09;1826969;78;21320;-42
2021/04/03 08:41:35;;;;;;;4.53;2.85;;;;;;;7.79;51.55;100114.58;1827115;78;21657;-42
2021/04/03 08:44:19;;;;;;;3.47;3.27;;;;;;;7.61;52.20;100112.21;1827027;78;21566;-42
2021/04/03 08:46:51;;;;;;;3.33;2.90;;;;;;;7.76;52.03;100110.30;1799656;78;20910;-43
2021/04/03 08:49:24;;;;;;;3.27;2.92;;;;;;;8.20;52.02;100114.45;1827007;78;20930;-42
2021/04/03 08:51:53;;;;;;;2.50;2.30;;;;;;;8.39;51.64;100096.14;1826477;78;21198;-43
2021/04/03 08:54:20;;;;;;;2.62;2.42;;;;;;;8.43;50.73;100103.81;1826908;78;21001;-42
2021/04/03 08:56:48;;;;;;;2.40;2.25;;;;;;;8.57;49.33;100105.34;1826970;78;21053;-43
2021/04/03 08:59:20;;;;;;;3.05;2.10;;;;;;;8.75;48.62;100095.19;1826883;78;21057;-43
2021/04/03 09:01:50;;;;;;;4.12;2.22;;;;;;;8.77;48.32;100101.17;1827061;78;21470;-43
2021/04/03 09:04:19;;;;;;;2.10;2.00;;;;;;;8.57;48.03;100108.80;1827006;78;21381;-43
2021/04/03 09:06:57;;;;;;;2.65;2.30;;;;;;;8.15;49.05;100105.94;1826905;78;21029;-42
2021/04/03 09:09:28;;;;;;;1.90;1.80;;;;;;;8.09;50.34;100104.31;1826956;78;21017;-43
2021/04/03 09:12:04;;;;;;;1.92;1.82;;;;;;;8.23;50.69;100100.25;1826940;78;20981;-43
2021/04/03 09:14:41;;;;;;;1.92;1.82;;;;;;;8.20;48.38;100117.03;1827114;78;21092;-43
2021/04/03 09:17:24;;;;;;;5.22;1.92;;;;;;;8.10;49.96;100126.64;1827007;78;21381;-43
2021/04/03 09:20:08;;;;;;;1.85;1.75;;;;;;;8.30;49.15;100121.63;1826476;78;22353;-42
2021/04/03 09:22:41;;;;;;;3.62;2.37;;;;;;;8.66;50.07;100114.67;1824933;78;22171;-42
2021/04/03 09:25:17;;;;;;;3.40;3.10;;;;;;;9.36;48.55;100116.92;1824891;78;20969;-43
2021/04/03 09:28:04;;;;;;;2.33;2.17;;;;;;;9.91;46.90;100118.86;1824615;78;20934;-43
2021/04/03 09:30:38;;;;;;;3.17;2.62;;;;;;;10.21;44.01;100109.15;1824997;78;21748;-46
2021/04/03 09:33:23;;;;;;;2.15;1.90;;;;;;;10.27;44.85;100118.52;1824337;77;21641;-43
2021/04/03 09:35:52;;;;;;;2.83;2.17;;;;;;;10.51;42.62;100121.46;1824352;78;20950;-43
2021/04/03 09:38:30;;;;;;;5.45;2.05;;;;;;;10.24;44.13;100124.63;1824353;78;21589;-42
2021/04/03 09:40:57;;;;;;;1.75;1.65;;;;;;;10.09;44.79;100119.78;1824367;78;21582;-42
2021/04/03 09:43:42;;;;;;;1.50;1.50;;;;;;;9.98;44.69;100128.63;1791533;78;21199;-42
2021/04/03 09:46:10;;;;;;;3.10;1.82;;;;;;;9.72;44.20;100137.75;1824369;78;21494;-43
2021/04/03 09:48:40;;;;;;;3.40;2.65;;;;;;;9.34;44.73;100130.31;1824361;78;21023;-42
2021/04/03 09:51:08;;;;;;;4.37;2.02;;;;;;;9.24;45.34;100124.91;1791922;78;20986;-44
2021/04/03 09:53:37;;;;;;;5.08;2.45;;;;;;;9.56;45.03;100116.98;1824345;78;21014;-43
2021/04/03 09:56:06;;;;;;;10.55;5.08;;;;;;;9.76;43.14;100129.50;1824329;78;21264;-42
2021/04/03 09:58:33;;;;;;;2.45;2.25;;;;;;;9.63;43.61;100138.80;1824359;78;21053;-43
2021/04/03 10:01:04;;;;;;;5.33;3.27;;;;;;;9.72;43.40;100144.20;1824305;78;21085;-43
2021/04/03 10:03:31;;;;;;;2.00;1.77;;;;;;;9.80;43.66;100131.59;1824361;78;20930;-43
2021/04/03 10:06:01;;;;;;;2.05;1.65;;;;;;;9.82;44.41;100141.00;1824296;78;21124;-43
2021/04/03 10:08:29;;;;;;;1.70;1.42;;;;;;;9.96;43.77;100140.72;1824333;78;21437;-42
2021/04/03 10:10:57;;;;;;;2.30;1.87;;;;;;;10.12;42.79;100138.69;1824276;78;20962;-46
2021/04/03 10:13:25;;;;;;;1.92;1.60;;;;;;;9.96;43.45;100167.03;1824333;78;21045;-42
2021/04/03 10:15:53;;;;;;;1.55;1.25;;;;;;;9.66;44.35;100152.09;1824293;78;21013;-43
2021/04/03 10:18:22;;;;;;;1.50;1.40;;;;;;;9.43;45.01;100166.75;1824376;78;21007;-43
2021/04/03 10:20:50;;;;;;;1.62;1.00;;;;;;;9.28;44.67;100157.09;1824180;78;21197;-43
2021/04/03 10:23:17;;;;;;;0.70;0.70;;;;;;;9.09;43.07;100125.58;1824126;78;20994;-42
2021/04/03 10:25:45;;;;;;;0.78;0.78;;;;;;;8.87;42.85;100187.06;1824300;78;20943;-44
2021/04/03 10:28:13;;;;;;;1.50;1.15;;;;;;;9.04;44.21;100186.33;1824247;78;21037;-43
2021/04/03 10:30:41;;;;;;;2.12;1.30;;;;;;;9.67;43.33;100171.88;1824320;78;20922;-41
2021/04/03 10:33:09;;;;;;;4.08;1.62;;;;;;;9.86;42.96;100160.77;1824265;77;21190;-43
2021/04/03 10:35:37;;;;;;;2.98;1.57;;;;;;;9.90;42.28;100172.74;1824218;78;21037;-45
2021/04/03 10:38:04;;;;;;;1.20;1.10;;;;;;;9.76;42.30;100174.31;1824279;78;20950;-41
2021/04/03 10:40:32;;;;;;;2.85;1.42;;;;;;;9.77;42.44;100169.98;1824215;78;20938;-42
2021/04/03 10:43:00;;;;;;;1.40;1.20;;;;;;;10.24;41.86;100167.31;1824250;78;20930;-43
2021/04/03 10:45:27;;;;;;;1.37;0.90;;;;;;;10.55;41.26;100164.50;1824388;78;22082;-42
2021/04/03 10:47:55;;;;;;;1.37;1.27;;;;;;;10.26;39.85;100174.59;1824214;78;21013;-43
2021/04/03 10:50:23;;;;;;;1.82;0.70;;;;;;;9.88;40.48;100182.69;1824227;78;21002;-42
2021/04/03 10:52:50;;;;;;;1.70;1.60;;;;;;;9.66;40.08;100184.39;1824295;78;20903;-42
2021/04/03 10:55:20;;;;;;;1.25;1.10;;;;;;;9.88;41.30;100185.28;1824288;78;20955;-42
2021/04/03 10:57:48;;;;;;;1.67;1.40;;;;;;;10.14;40.99;100191.66;1824246;78;21190;-42
2021/04/03 11:00:17;;;;;;;2.95;1.40;;;;;;;10.22;40.55;100192.33;1824119;78;20994;-44
2021/04/03 11:02:45;;;;;;;1.00;0.90;;;;;;;10.21;39.28;100186.75;1824245;78;20931;-41
2021/04/03 11:05:14;;;;;;;1.25;1.15;;;;;;;10.11;39.86;100187.84;1796965;78;20939;-42
2021/04/03 11:07:41;;;;;;;1.05;1.05;;;;;;;10.25;39.52;100186.26;1824311;78;21002;-42
2021/04/03 11:10:11;;;;;;;1.62;0.90;;;;;;;10.60;40.32;100191.11;1824202;78;21133;-43
2021/04/03 11:12:40;;;;;;;1.32;1.00;;;;;;;10.70;38.83;100191.77;1797047;78;21559;-43
2021/04/03 11:15:11;;;;;;;3.42;0.88;;;;;;;10.34;39.90;100180.88;1824198;78;21155;-43
2021/04/03 11:17:39;;;;;;;4.53;1.30;;;;;;;10.12;40.08;100185.66;1824201;78;21006;-44
2021/04/03 11:20:10;;;;;;;2.80;2.50;;;;;;;10.17;41.45;100173.48;1824993;78;20958;-42
2021/04/03 11:22:38;;;;;;;4.58;4.08;;;;;;;10.66;40.81;100181.94;1832389;78;21323;-42
2021/04/03 11:25:07;;;;;;;1.15;1.05;;;;;;;11.06;40.06;100183.55;1832344;78;20938;-42
2021/04/03 11:27:35;;;;;;;0.75;0.75;;;;;;;11.00;38.80;100176.41;1832422;78;21578;-42
2021/04/03 11:30:14;;;;;;;1.82;1.00;;;;;;;10.70;39.60;100178.81;1832326;78;20946;-42
2021/04/03 11:32:49;;;;;;;1.45;1.32;;;;;;;10.71;40.16;100176.63;1832285;77;20942;-42
2021/04/03 11:35:20;;;;;;;1.17;1.17;;;;;;;11.08;40.27;100173.17;1832394;78;21365;-44
2021/04/03 11:37:48;;;;;;;2.40;1.50;;;;;;;11.50;38.42;100172.96;1831731;78;20982;-42
2021/04/03 11:40:17;;;;;;;3.40;0.85;;;;;;;11.78;35.96;100151.45;1832381;78;20957;-43
2021/04/03 11:42:47;;;;;;;1.52;1.35;;;;;;;11.53;37.75;100176.36;1832355;78;21005;-42
2021/04/03 11:45:17;;;;;;;2.25;0.80;;;;;;;11.39;36.78;100182.74;1832367;78;21005;-41
2021/04/03 11:47:45;;;;;;;0.70;0.70;;;;;;;10.96;38.13;100186.41;1832304;78;21362;-42
2021/04/03 13:21:45;;;;;;;7.45;6.67;;;;;;;10.37;37.50;100211.88;1814504;77;23379;-42
2021/04/03 13:24:16;;;;;;;3.87;3.10;;;;;;;10.42;37.77;100215.25;1744756;81;20947;-43
2021/04/03 13:26:45;;;;;;;12.00;8.93;;;;;;;10.29;37.25;100209.87;1699604;83;21269;-43
2021/04/03 13:29:12;;;;;;;32.85;19.48;;;;;;;10.12;37.30;100220.16;1695099;83;21023;-43
2021/04/03 13:31:42;;;;;;;14.65;9.83;;;;;;;9.96;38.07;100222.63;1719974;83;20990;-44
2021/04/03 13:34:09;;;;;;;3.20;1.80;;;;;;;9.96;38.04;100228.62;1767046;80;21051;-46
2021/04/03 13:36:38;;;;;;;1.22;0.80;;;;;;;10.23;38.31;100222.52;1734131;81;21085;-43
2021/04/03 13:39:06;;;;;;;28.92;16.37;;;;;;;10.74;37.07;100219.31;1708051;84;21373;-43
2021/04/03 13:41:34;;;;;;;4.03;3.55;;;;;;;11.34;34.12;100219.59;1714842;83;20959;-42
2021/04/03 13:44:03;;;;;;;6.55;3.95;;;;;;;11.72;35.29;100212.54;1780850;80;21034;-44
2021/04/03 13:46:31;;;;;;;5.95;3.22;;;;;;;12.20;33.68;100216.45;1710024;82;21208;-43
2021/04/03 13:49:00;;;;;;;4.05;1.12;;;;;;;12.15;33.94;100212.27;1707133;82;21378;-43
2021/04/03 13:51:28;;;;;;;1.92;1.10;;;;;;;11.82;34.62;100217.03;1709453;83;21365;-43
2021/04/03 13:53:58;;;;;;;5.55;2.45;;;;;;;11.66;34.09;100215.77;1708805;82;21149;-42
2021/04/03 13:56:25;;;;;;;1.60;0.98;;;;;;;11.33;35.51;100216.59;1716670;82;21033;-43
2021/04/03 13:58:54;;;;;;;4.87;2.85;;;;;;;11.05;34.48;100214.70;1772158;80;21032;-42
2021/04/03 14:01:23;;;;;;;1.45;1.35;;;;;;;10.89;35.02;100212.92;1771432;80;21017;-44
2021/04/03 14:03:53;;;;;;;7.30;6.22;;;;;;;11.02;34.67;100214.77;1781900;80;21351;-42
2021/04/03 14:06:22;;;;;;;3.70;2.92;;;;;;;11.21;34.75;100220.34;1741716;81;21062;-43
2021/04/03 14:08:51;;;;;;;10.53;3.30;;;;;;;11.72;34.42;100228.55;1700324;83;21020;-42
2021/04/03 14:11:20;;;;;;;2.55;1.70;;;;;;;12.28;33.63;100229.20;1745881;81;21023;-42
2021/04/03 14:13:50;;;;;;;3.27;2.12;;;;;;;12.65;32.70;100226.79;1777310;80;21089;-43